createdAt,value
2022-10-26T00:00:25.968Z,7.14
2022-10-26T00:02:54.407Z,6.53
2022-10-26T00:05:22.032Z,6.45
2022-10-26T00:07:49.265Z,6.33
2022-10-26T00:10:16.047Z,6.59
2022-10-26T00:12:42.674Z,6.73
2022-10-26T00:15:09.723Z,6.55
2022-10-26T00:17:36.367Z,6.77
2022-10-26T00:20:03.002Z,6.70
2022-10-26T00:22:41.964Z,6.40
2022-10-26T00:25:09.004Z,6.37
2022-10-26T00:27:35.993Z,7.15
2022-10-26T00:30:03.607Z,7.07
2022-10-26T00:32:30.310Z,6.29
2022-10-26T00:34:57.064Z,7.01
2022-10-26T00:37:23.726Z,6.40
2022-10-26T00:39:50.320Z,6.61
2022-10-26T00:42:21.343Z,6.39
2022-10-26T00:44:47.942Z,7.34
2022-10-26T00:47:33.675Z,7.16
2022-10-26T00:50:03.643Z,6.95
2022-10-26T00:52:30.197Z,7.32
2022-10-26T00:54:56.923Z,7.20
2022-10-26T00:57:23.513Z,6.68
2022-10-26T00:59:50.125Z,6.87
2022-10-26T01:02:16.685Z,6.35
2022-10-26T01:04:43.259Z,6.72
2022-10-26T01:07:10.028Z,7.10
2022-10-26T01:09:36.627Z,6.98
2022-10-26T01:12:03.403Z,6.49
2022-10-26T01:14:30.000Z,6.35
2022-10-26T01:16:59.640Z,7.16
2022-10-26T01:19:52.997Z,7.16
2022-10-26T01:22:21.337Z,6.65
2022-10-26T01:25:19.036Z,7.15
2022-10-26T01:27:47.321Z,6.42
2022-10-26T01:30:18.327Z,7.25
2022-10-26T01:32:54.140Z,7.28
2022-10-26T01:35:43.519Z,7.25
2022-10-26T01:38:40.976Z,7.25
2022-10-26T01:41:28.676Z,7.26
2022-10-26T01:44:10.873Z,6.36
2022-10-26T01:46:39.546Z,7.02
2022-10-26T01:49:10.765Z,6.88
2022-10-26T01:51:38.938Z,6.88
2022-10-26T01:54:05.496Z,6.37
2022-10-26T01:56:34.385Z,6.92
2022-10-26T01:59:00.855Z,7.21
2022-10-26T02:01:36.555Z,7.19
2022-10-26T02:04:15.198Z,7.17
2022-10-26T02:07:20.422Z,6.72
2022-10-26T02:10:12.388Z,6.59
2022-10-26T02:12:44.802Z,6.27
2022-10-26T02:15:22.362Z,6.11
2022-10-26T02:17:55.914Z,6.26
2022-10-26T02:20:44.205Z,6.60
2022-10-26T02:23:10.770Z,6.41
2022-10-26T02:25:44.637Z,6.10
2022-10-26T02:28:14.046Z,5.92
2022-10-26T02:30:40.659Z,6.28
2022-10-26T02:33:07.233Z,5.76
2022-10-26T02:35:35.651Z,5.78
2022-10-26T02:38:04.548Z,5.87
2022-10-26T02:40:31.138Z,6.21
2022-10-26T02:43:00.051Z,4.20
2022-10-26T02:45:28.733Z,5.78
2022-10-26T02:47:55.357Z,5.95
2022-10-26T02:50:26.787Z,5.13
2022-10-26T02:53:09.133Z,6.66
2022-10-26T02:55:40.607Z,6.18
2022-10-26T02:58:10.247Z,6.19
2022-10-26T03:00:36.883Z,6.55
2022-10-26T03:03:03.729Z,6.02
2022-10-26T03:05:32.654Z,6.06
2022-10-26T03:07:59.690Z,5.98
2022-10-26T03:10:26.395Z,6.33
2022-10-26T03:12:53.424Z,6.02
2022-10-26T03:15:20.838Z,5.94
2022-10-26T03:17:47.823Z,6.18
2022-10-26T03:20:14.963Z,5.94
2022-10-26T03:22:41.603Z,5.06
2022-10-26T03:27:35.309Z,6.52
2022-10-26T03:30:06.663Z,6.36
2022-10-26T03:32:33.267Z,6.59
2022-10-26T03:34:59.845Z,6.07
2022-10-26T03:37:26.565Z,6.16
2022-10-26T03:39:53.191Z,6.00
2022-10-26T03:42:19.761Z,5.74
2022-10-26T03:44:47.278Z,5.88
2022-10-26T03:47:13.859Z,6.30
2022-10-26T03:49:40.512Z,6.59
2022-10-26T03:52:07.123Z,6.17
2022-10-26T03:54:33.813Z,6.31
2022-10-26T03:57:00.368Z,5.49
2022-10-26T03:59:26.921Z,5.75
2022-10-26T04:01:56.745Z,4.08
2022-10-26T04:04:24.610Z,5.62
2022-10-26T04:06:51.291Z,4.65
2022-10-26T04:09:17.920Z,5.33
2022-10-26T04:11:44.586Z,5.57
2022-10-26T04:14:11.210Z,5.48
2022-10-26T04:16:37.813Z,5.67
2022-10-26T04:19:04.407Z,6.21
2022-10-26T04:21:33.217Z,6.17
2022-10-26T04:24:02.233Z,5.81
2022-10-26T04:26:28.971Z,5.46
2022-10-26T04:28:55.671Z,4.98
2022-10-26T04:31:22.254Z,4.67
2022-10-26T04:33:48.889Z,5.49
2022-10-26T04:36:15.476Z,5.93
2022-10-26T04:38:42.062Z,6.15
2022-10-26T04:41:08.634Z,6.47
2022-10-26T04:43:35.213Z,5.40
2022-10-26T04:46:01.964Z,6.20
2022-10-26T04:48:28.929Z,6.12
2022-10-26T04:50:58.838Z,6.25
2022-10-26T04:53:25.535Z,5.82
2022-10-26T04:55:58.829Z,6.10
2022-10-26T04:58:25.724Z,5.90
2022-10-26T05:00:52.308Z,5.78
2022-10-26T05:03:18.959Z,5.64
2022-10-26T05:05:45.607Z,5.37
2022-10-26T05:08:12.268Z,5.58
2022-10-26T05:10:39.006Z,5.41
2022-10-26T05:13:05.766Z,5.97
2022-10-26T05:15:32.428Z,5.91
2022-10-26T05:18:03.500Z,6.18
2022-10-26T05:20:31.388Z,6.01
2022-10-26T05:22:58.825Z,6.27
2022-10-26T05:25:25.874Z,5.71
2022-10-26T05:27:52.453Z,5.64
2022-10-26T05:30:19.052Z,6.49
2022-10-26T05:32:45.857Z,4.77
2022-10-26T05:35:12.552Z,5.43
2022-10-26T05:37:39.131Z,5.69
2022-10-26T05:40:06.427Z,5.37
2022-10-26T05:42:33.030Z,5.10
2022-10-26T05:45:03.829Z,5.55
2022-10-26T05:47:30.445Z,5.70
2022-10-26T05:49:57.027Z,6.26
2022-10-26T05:52:23.683Z,5.61
2022-10-26T05:54:50.326Z,6.28
2022-10-26T05:57:17.167Z,5.66
2022-10-26T05:59:43.989Z,5.85
2022-10-26T06:02:38.867Z,5.83
2022-10-26T06:05:06.131Z,6.11
2022-10-26T06:07:33.359Z,4.85
2022-10-26T06:10:00.260Z,5.46
2022-10-26T06:12:27.185Z,5.80
2022-10-26T06:14:54.145Z,6.28
2022-10-26T06:18:04.534Z,6.53
2022-10-26T06:21:04.442Z,6.62
2022-10-26T06:23:45.658Z,6.88
2022-10-26T06:26:24.317Z,6.93
2022-10-26T06:28:57.358Z,6.39
2022-10-26T06:31:23.937Z,6.26
2022-10-26T06:33:50.886Z,6.62
2022-10-26T06:36:25.324Z,6.43
2022-10-26T06:38:57.144Z,6.41
2022-10-26T06:41:23.830Z,6.30
2022-10-26T06:43:50.641Z,6.17
2022-10-26T06:46:17.135Z,6.97
2022-10-26T06:49:32.400Z,6.88
2022-10-26T06:52:03.262Z,7.02
2022-10-26T06:54:49.760Z,7.06
2022-10-26T06:57:17.249Z,6.26
2022-10-26T07:00:03.549Z,6.71
2022-10-26T07:02:30.642Z,6.52
2022-10-26T07:04:57.539Z,7.27
2022-10-26T07:07:25.328Z,7.37
2022-10-26T07:09:52.012Z,7.09
2022-10-26T07:12:18.674Z,6.27
2022-10-26T07:14:45.359Z,7.25
2022-10-26T07:17:12.078Z,5.83
2022-10-26T07:19:40.484Z,7.16
2022-10-26T07:22:07.072Z,7.62
2022-10-26T07:24:33.717Z,7.97
2022-10-26T07:27:00.391Z,9.45
2022-10-26T07:29:30.981Z,10.56
2022-10-26T07:31:57.628Z,11.36
2022-10-26T07:34:24.276Z,12.18
2022-10-26T07:36:51.692Z,13.60
2022-10-26T07:39:18.492Z,14.74
2022-10-26T07:41:45.378Z,15.98
2022-10-26T07:44:12.008Z,17.01
2022-10-26T07:46:38.664Z,17.18
2022-10-26T07:49:05.234Z,18.60
2022-10-26T07:51:31.829Z,19.45
2022-10-26T07:53:58.601Z,20.47
2022-10-26T07:56:25.268Z,21.10
2022-10-26T07:58:55.044Z,21.75
2022-10-26T08:01:21.863Z,23.04
2022-10-26T08:03:48.540Z,23.49
2022-10-26T08:06:15.186Z,24.39
2022-10-26T08:08:45.018Z,24.61
2022-10-26T08:11:14.275Z,24.44
2022-10-26T08:13:41.010Z,25.63
2022-10-26T08:16:08.363Z,26.01
2022-10-26T08:18:34.911Z,26.43
2022-10-26T08:21:10.714Z,26.98
2022-10-26T08:23:39.178Z,27.37
2022-10-26T08:26:05.923Z,27.59
2022-10-26T08:28:32.540Z,27.84
2022-10-26T08:30:59.231Z,27.97
2022-10-26T08:33:25.963Z,28.30
2022-10-26T08:35:56.583Z,27.99
2022-10-26T08:38:23.174Z,26.49
2022-10-26T08:40:50.108Z,25.73
2022-10-26T08:43:39.682Z,25.13
2022-10-26T08:46:22.277Z,24.09
2022-10-26T08:48:52.960Z,22.85
2022-10-26T08:51:25.247Z,21.16
2022-10-26T08:53:58.588Z,21.47
2022-10-26T08:56:29.419Z,20.00
2022-10-26T08:59:03.946Z,19.63
2022-10-26T09:01:34.111Z,19.53
2022-10-26T09:06:42.802Z,18.57
2022-10-26T09:09:21.858Z,18.05
2022-10-26T09:11:48.439Z,18.04
2022-10-26T09:14:28.393Z,17.72
2022-10-26T09:17:21.017Z,17.72
2022-10-26T09:20:09.404Z,17.59
2022-10-26T09:22:51.073Z,16.70
2022-10-26T09:25:22.445Z,16.27
2022-10-26T09:27:57.471Z,17.10
2022-10-26T09:30:24.294Z,16.11
2022-10-26T09:33:00.651Z,16.97
2022-10-26T09:38:32.623Z,17.03
2022-10-26T09:41:06.535Z,16.95
2022-10-26T09:46:28.667Z,16.87
2022-10-26T09:48:57.379Z,16.73
2022-10-26T09:51:24.048Z,15.82
2022-10-26T09:53:50.627Z,15.59
2022-10-26T09:56:17.374Z,16.81
2022-10-26T09:58:51.589Z,16.81
2022-10-26T10:01:36.696Z,16.29
2022-10-26T10:04:13.362Z,16.43
2022-10-26T10:06:40.599Z,16.55
2022-10-26T10:09:07.149Z,17.15
2022-10-26T10:11:41.270Z,16.76
2022-10-26T10:14:08.957Z,17.10
2022-10-26T10:16:35.730Z,17.06
2022-10-26T10:19:02.384Z,17.00
2022-10-26T10:21:38.833Z,17.43
2022-10-26T10:24:38.611Z,17.55
2022-10-26T10:27:15.863Z,16.76
2022-10-26T10:29:46.204Z,16.11
2022-10-26T10:32:38.655Z,17.75
2022-10-26T10:35:25.424Z,17.73
2022-10-26T10:37:52.006Z,17.63
2022-10-26T10:40:20.945Z,16.64
2022-10-26T10:42:47.835Z,17.36
2022-10-26T10:45:20.675Z,16.97
2022-10-26T10:48:13.524Z,18.03
2022-10-26T10:50:50.755Z,17.69
2022-10-26T10:53:19.601Z,18.28
2022-10-26T10:56:05.364Z,17.80
2022-10-26T10:59:03.639Z,18.05
2022-10-26T11:01:32.555Z,17.68
2022-10-26T11:04:43.729Z,18.39
2022-10-26T11:07:10.360Z,17.93
2022-10-26T11:09:38.048Z,18.50
2022-10-26T11:12:10.283Z,18.57
2022-10-26T11:14:45.146Z,18.04
2022-10-26T11:17:24.590Z,18.73
2022-10-26T11:19:59.955Z,18.24
2022-10-26T11:22:35.544Z,18.45
2022-10-26T11:25:22.995Z,18.82
2022-10-26T11:28:02.208Z,18.44
2022-10-26T11:30:49.632Z,18.41
2022-10-26T11:33:24.063Z,18.40
2022-10-26T11:35:58.766Z,18.51
2022-10-26T11:38:38.852Z,18.54
2022-10-26T11:41:13.956Z,18.53
2022-10-26T11:43:43.888Z,17.59
2022-10-26T11:46:19.131Z,18.52
2022-10-26T11:48:59.287Z,17.22
2022-10-26T11:51:39.809Z,18.27
2022-10-26T11:54:12.232Z,18.55
2022-10-26T11:56:49.813Z,18.19
2022-10-26T11:59:20.749Z,18.73
2022-10-26T12:01:51.523Z,18.67
2022-10-26T12:04:19.493Z,18.47
2022-10-26T12:06:46.079Z,18.02
2022-10-26T12:09:16.169Z,18.34
2022-10-26T12:11:56.496Z,18.19
2022-10-26T12:14:47.201Z,18.78
2022-10-26T12:17:31.059Z,18.31
2022-10-26T12:20:05.383Z,18.69
2022-10-26T12:22:38.020Z,18.20
2022-10-26T12:25:15.358Z,18.36
2022-10-26T12:27:42.343Z,18.65
2022-10-26T12:30:12.088Z,18.72
2022-10-26T12:32:50.489Z,18.11
2022-10-26T12:35:37.554Z,18.25
2022-10-26T12:38:29.056Z,18.61
2022-10-26T12:41:04.343Z,18.51
2022-10-26T12:43:30.897Z,18.44
2022-10-26T12:46:12.977Z,18.41
2022-10-26T12:48:40.212Z,18.37
2022-10-26T12:51:40.024Z,18.23
2022-10-26T12:54:33.055Z,18.22
2022-10-26T12:57:21.151Z,17.81
2022-10-26T13:00:06.034Z,17.24
2022-10-26T13:02:38.529Z,18.19
2022-10-26T13:05:17.056Z,18.11
2022-10-26T13:07:43.680Z,17.81
2022-10-26T13:10:13.257Z,18.01
2022-10-26T13:13:00.766Z,17.95
2022-10-26T13:15:32.263Z,17.85
2022-10-26T13:18:07.169Z,17.76
2022-10-26T13:20:34.568Z,16.48
2022-10-26T13:25:33.728Z,17.12
2022-10-26T13:28:05.863Z,15.02
2022-10-26T13:30:42.712Z,17.02
2022-10-26T13:33:15.294Z,16.93
2022-10-26T13:35:41.962Z,16.12
2022-10-26T13:38:10.656Z,16.53
2022-10-26T13:40:37.430Z,15.98
2022-10-26T13:43:04.713Z,15.70
2022-10-26T13:45:34.089Z,16.05
2022-10-26T13:48:40.470Z,16.30
2022-10-26T13:51:25.525Z,15.61
2022-10-26T13:53:59.598Z,14.62
2022-10-26T13:56:41.622Z,16.07
2022-10-26T13:59:12.824Z,14.65
2022-10-26T14:01:39.678Z,14.67
2022-10-26T14:04:17.400Z,15.61
2022-10-26T14:06:48.936Z,14.95
2022-10-26T14:09:16.202Z,14.80
2022-10-26T14:12:01.993Z,14.41
2022-10-26T14:14:36.351Z,15.18
2022-10-26T14:17:03.029Z,13.67
2022-10-26T14:19:34.134Z,15.45
2022-10-26T14:22:00.801Z,14.40
2022-10-26T14:24:45.820Z,15.46
2022-10-26T14:27:20.245Z,14.24
2022-10-26T14:30:03.723Z,14.56
2022-10-26T14:32:40.196Z,13.74
2022-10-26T14:35:12.486Z,14.27
2022-10-26T14:37:40.453Z,14.92
2022-10-26T14:40:10.361Z,13.01
2022-10-26T14:42:40.146Z,13.67
2022-10-26T14:45:09.453Z,13.85
2022-10-26T14:47:41.839Z,14.24
2022-10-26T14:50:18.598Z,14.32
2022-10-26T14:52:50.380Z,14.11
2022-10-26T14:56:04.780Z,14.64
2022-10-26T14:58:31.613Z,14.09
2022-10-26T15:01:23.833Z,14.43
2022-10-26T15:03:54.273Z,13.76
2022-10-26T15:06:56.302Z,13.26
2022-10-26T15:09:37.806Z,12.70
2022-10-26T15:12:04.827Z,12.52
2022-10-26T15:14:34.029Z,12.31
2022-10-26T15:17:00.685Z,12.48
2022-10-26T15:19:27.383Z,12.12
2022-10-26T15:21:54.152Z,12.06
2022-10-26T15:24:20.644Z,13.67
2022-10-26T15:26:47.265Z,12.42
2022-10-26T15:29:36.468Z,13.46
2022-10-26T15:34:30.800Z,13.07
2022-10-26T15:36:57.651Z,12.08
2022-10-26T15:39:25.959Z,10.98
2022-10-26T15:41:53.637Z,11.82
2022-10-26T15:44:21.628Z,11.83
2022-10-26T15:46:48.207Z,12.57
2022-10-26T15:49:18.993Z,12.47
2022-10-26T15:51:46.710Z,10.85
2022-10-26T15:54:13.424Z,10.36
2022-10-26T15:56:40.068Z,11.69
2022-10-26T15:59:24.838Z,10.65
2022-10-26T16:01:52.963Z,10.24
2022-10-26T16:04:19.641Z,11.07
2022-10-26T16:06:46.768Z,9.22
2022-10-26T16:09:15.983Z,11.00
2022-10-26T16:11:43.240Z,11.15
2022-10-26T16:14:13.184Z,10.06
2022-10-26T16:16:39.985Z,9.65
2022-10-26T16:19:29.377Z,9.49
2022-10-26T16:21:53.274Z,10.17
2022-10-26T16:24:19.915Z,10.55
2022-10-26T16:27:04.939Z,9.92
2022-10-26T16:29:31.766Z,8.03
2022-10-26T16:31:58.387Z,9.65
2022-10-26T16:34:25.007Z,10.13
2022-10-26T16:36:51.633Z,9.27
2022-10-26T16:39:19.629Z,9.92
2022-10-26T16:41:49.012Z,9.73
2022-10-26T16:44:15.580Z,9.79
2022-10-26T16:46:42.179Z,10.41
2022-10-26T16:49:08.925Z,9.33
2022-10-26T16:51:35.543Z,9.69
2022-10-26T16:54:02.173Z,9.56
2022-10-26T16:56:29.952Z,9.54
2022-10-26T16:58:57.213Z,8.28
2022-10-26T17:01:23.961Z,9.98
2022-10-26T17:03:51.267Z,8.82
2022-10-26T17:06:18.002Z,9.41
2022-10-26T17:08:44.684Z,9.24
2022-10-26T17:11:13.004Z,8.96
2022-10-26T17:13:39.948Z,9.19
2022-10-26T17:16:17.506Z,10.02
2022-10-26T17:18:44.470Z,9.85
2022-10-26T17:21:11.850Z,8.73
2022-10-26T17:23:38.524Z,8.59
2022-10-26T17:26:06.194Z,8.63
2022-10-26T17:28:32.900Z,8.66
2022-10-26T17:31:15.609Z,9.52
2022-10-26T17:33:43.351Z,8.94
2022-10-26T17:36:10.897Z,8.44
2022-10-26T17:38:38.558Z,8.58
2022-10-26T17:41:15.507Z,8.98
2022-10-26T17:43:42.941Z,9.00
2022-10-26T17:46:14.092Z,9.48
2022-10-26T17:48:41.010Z,9.75
2022-10-26T17:51:15.087Z,9.50
2022-10-26T17:53:41.740Z,9.67
2022-10-26T17:56:36.090Z,9.61
2022-10-26T17:59:05.102Z,9.03
2022-10-26T18:01:32.263Z,9.10
2022-10-26T18:03:59.200Z,8.05
2022-10-26T18:06:25.791Z,9.54
2022-10-26T18:08:52.357Z,9.92
2022-10-26T18:11:25.420Z,10.05
2022-10-26T18:13:54.005Z,9.46
2022-10-26T18:16:22.227Z,8.42
2022-10-26T18:18:51.932Z,10.01
2022-10-26T18:21:19.668Z,9.81
2022-10-26T18:23:46.679Z,9.72
2022-10-26T18:26:20.716Z,9.60
2022-10-26T18:28:47.354Z,10.06
2022-10-26T18:31:15.532Z,10.34
2022-10-26T18:33:42.702Z,9.43
2022-10-26T18:36:14.569Z,9.01
2022-10-26T18:38:41.407Z,9.04
2022-10-26T18:41:09.916Z,10.08
2022-10-26T18:43:40.285Z,10.35
2022-10-26T18:46:11.550Z,10.11
2022-10-26T18:48:38.215Z,9.88
2022-10-26T18:51:05.803Z,10.10
2022-10-26T18:53:35.997Z,10.19
2022-10-26T18:56:03.975Z,10.23
2022-10-26T18:58:31.911Z,10.31
2022-10-26T19:01:22.014Z,10.75
2022-10-26T19:03:52.741Z,10.18
2022-10-26T19:06:21.692Z,9.72
2022-10-26T19:08:48.314Z,10.01
2022-10-26T19:11:16.432Z,10.08
2022-10-26T19:13:43.168Z,9.50
2022-10-26T19:16:48.384Z,10.79
2022-10-26T19:19:16.189Z,9.15
2022-10-26T19:21:43.107Z,10.38
2022-10-26T19:24:14.535Z,9.31
2022-10-26T19:26:43.814Z,10.20
2022-10-26T19:29:14.595Z,10.11
2022-10-26T19:31:41.347Z,10.08
2022-10-26T19:34:08.047Z,9.99
2022-10-26T19:36:34.739Z,9.54
2022-10-26T19:39:02.057Z,10.73
2022-10-26T19:41:29.538Z,9.73
2022-10-26T19:43:56.446Z,8.87
2022-10-26T19:46:27.505Z,10.08
2022-10-26T19:48:58.650Z,10.01
2022-10-26T19:51:25.818Z,9.77
2022-10-26T19:53:52.543Z,10.18
2022-10-26T19:56:20.670Z,10.02
2022-10-26T19:58:47.614Z,10.22
2022-10-26T20:01:14.998Z,10.03
2022-10-26T20:03:41.721Z,9.53
2022-10-26T20:06:12.735Z,10.02
2022-10-26T20:08:43.966Z,9.55
2022-10-26T20:11:14.659Z,9.48
2022-10-26T20:13:42.639Z,9.74
2022-10-26T20:16:09.390Z,9.25
2022-10-26T20:18:36.017Z,9.62
2022-10-26T20:21:07.113Z,9.65
2022-10-26T20:23:33.697Z,9.25
2022-10-26T20:26:00.511Z,7.73
2022-10-26T20:28:27.259Z,8.96
2022-10-26T20:30:53.924Z,8.68
2022-10-26T20:33:20.654Z,7.92
2022-10-26T20:35:47.394Z,7.99
2022-10-26T20:38:20.539Z,8.79
2022-10-26T20:40:56.586Z,8.62
2022-10-26T20:43:23.903Z,7.85
2022-10-26T20:45:51.923Z,8.01
2022-10-26T20:48:19.215Z,8.93
2022-10-26T20:50:53.034Z,8.72
2022-10-26T20:53:38.238Z,8.88
2022-10-26T20:56:06.879Z,9.12
2022-10-26T20:58:51.766Z,9.70
2022-10-26T21:01:35.303Z,9.23
2022-10-26T21:04:02.718Z,8.58
2022-10-26T21:06:29.392Z,8.51
2022-10-26T21:08:56.776Z,9.11
2022-10-26T21:11:24.506Z,9.06
2022-10-26T21:13:52.627Z,9.54
2022-10-26T21:16:19.260Z,9.54
2022-10-26T21:18:45.845Z,9.53
2022-10-26T21:21:12.655Z,9.91
2022-10-26T21:23:40.082Z,10.33
2022-10-26T21:26:06.926Z,9.14
2022-10-26T21:28:35.009Z,9.82
2022-10-26T21:31:05.513Z,10.05
2022-10-26T21:33:32.296Z,10.16
2022-10-26T21:35:59.869Z,10.24
2022-10-26T21:38:27.553Z,9.71
2022-10-26T21:41:18.988Z,10.63
2022-10-26T21:43:48.793Z,9.98
2022-10-26T21:46:16.158Z,9.95
2022-10-26T21:48:42.779Z,10.34
2022-10-26T21:51:13.795Z,10.08
2022-10-26T21:53:40.621Z,10.03
2022-10-26T21:56:14.828Z,10.49
2022-10-26T21:58:41.646Z,10.30
2022-10-26T22:01:09.086Z,10.74
2022-10-26T22:03:36.432Z,10.29
2022-10-26T22:06:03.467Z,11.03
2022-10-26T22:08:30.039Z,10.57
2022-10-26T22:10:56.707Z,10.43
2022-10-26T22:13:23.558Z,9.72
2022-10-26T22:16:00.833Z,10.90
2022-10-26T22:18:27.425Z,10.67
2022-10-26T22:20:58.133Z,10.26
2022-10-26T22:23:24.710Z,10.52
2022-10-26T22:25:51.313Z,9.97
2022-10-26T22:28:17.958Z,10.40
2022-10-26T22:30:45.322Z,10.82
2022-10-26T22:33:13.139Z,10.91
2022-10-26T22:35:39.707Z,10.49
2022-10-26T22:38:06.466Z,11.01
2022-10-26T22:40:33.034Z,10.89
2022-10-26T22:42:59.619Z,10.82
2022-10-26T22:45:26.291Z,11.17
2022-10-26T22:47:53.015Z,11.14
2022-10-26T22:50:19.668Z,10.34
2022-10-26T22:52:46.425Z,10.89
2022-10-26T22:55:13.256Z,11.08
2022-10-26T22:57:40.004Z,10.80
2022-10-26T23:00:07.488Z,10.63
2022-10-26T23:02:34.040Z,10.94
2022-10-26T23:05:00.708Z,11.19
2022-10-26T23:07:29.497Z,11.26
2022-10-26T23:09:56.082Z,10.77
2022-10-26T23:12:22.669Z,11.23
2022-10-26T23:14:49.272Z,11.16
2022-10-26T23:17:15.830Z,10.84
2022-10-26T23:19:42.394Z,11.19
2022-10-26T23:22:09.015Z,11.08
2022-10-26T23:24:35.769Z,10.84
2022-10-26T23:27:02.402Z,10.81
2022-10-26T23:29:29.152Z,10.99
2022-10-26T23:31:55.716Z,11.07
2022-10-26T23:34:22.305Z,10.94
2022-10-26T23:36:49.245Z,10.44
2022-10-26T23:39:15.839Z,11.03
2022-10-26T23:41:42.386Z,11.13
2022-10-26T23:44:09.051Z,10.82
2022-10-26T23:46:35.628Z,11.01
2022-10-26T23:49:02.236Z,11.01
2022-10-26T23:51:28.822Z,9.88
2022-10-26T23:53:55.444Z,10.35
2022-10-26T23:56:22.017Z,9.85
2022-10-26T23:58:51.627Z,10.82
